sensor_id;sensor_type;location;lat;lon;timestamp;P1;durP1;ratioP1;P2;durP2;ratioP2
56999;SDS011;42891;50.006;21.964;2023-12-07T00:02:31;123.27;;;46.77;;
56999;SDS011;42891;50.006;21.964;2023-12-07T00:06:31;108.85;;;44.97;;
56999;SDS011;42891;50.006;21.964;2023-12-07T00:10:32;98.38;;;40.92;;
56999;SDS011;42891;50.006;21.964;2023-12-07T00:14:32;103.05;;;41.42;;
56999;SDS011;42891;50.006;21.964;2023-12-07T00:18:32;100.47;;;41.47;;
56999;SDS011;42891;50.006;21.964;2023-12-07T00:22:33;89.13;;;39.05;;
56999;SDS011;42891;50.006;21.964;2023-12-07T00:26:33;94.43;;;37.35;;
56999;SDS011;42891;50.006;21.964;2023-12-07T00:30:33;84.18;;;35.83;;
56999;SDS011;42891;50.006;21.964;2023-12-07T00:34:34;80.40;;;35.43;;
56999;SDS011;42891;50.006;21.964;2023-12-07T00:38:34;89.20;;;36.00;;
56999;SDS011;42891;50.006;21.964;2023-12-07T00:42:36;71.25;;;34.63;;
56999;SDS011;42891;50.006;21.964;2023-12-07T00:46:36;78.95;;;35.20;;
56999;SDS011;42891;50.006;21.964;2023-12-07T00:50:36;85.53;;;35.70;;
56999;SDS011;42891;50.006;21.964;2023-12-07T00:54:37;81.72;;;35.60;;
56999;SDS011;42891;50.006;21.964;2023-12-07T00:58:37;89.57;;;36.70;;
56999;SDS011;42891;50.006;21.964;2023-12-07T01:02:38;79.38;;;36.60;;
56999;SDS011;42891;50.006;21.964;2023-12-07T01:06:38;64.10;;;29.90;;
56999;SDS011;42891;50.006;21.964;2023-12-07T01:10:39;80.13;;;35.03;;
56999;SDS011;42891;50.006;21.964;2023-12-07T01:14:39;74.38;;;35.70;;
56999;SDS011;42891;50.006;21.964;2023-12-07T01:18:39;61.80;;;29.53;;
56999;SDS011;42891;50.006;21.964;2023-12-07T01:22:40;61.45;;;28.85;;
56999;SDS011;42891;50.006;21.964;2023-12-07T01:30:45;53.15;;;24.73;;
56999;SDS011;42891;50.006;21.964;2023-12-07T01:34:46;48.28;;;22.63;;
56999;SDS011;42891;50.006;21.964;2023-12-07T01:38:46;36.93;;;20.37;;
56999;SDS011;42891;50.006;21.964;2023-12-07T01:42:50;40.13;;;21.73;;
56999;SDS011;42891;50.006;21.964;2023-12-07T01:46:51;39.37;;;20.27;;
56999;SDS011;42891;50.006;21.964;2023-12-07T01:50:52;39.60;;;20.00;;
56999;SDS011;42891;50.006;21.964;2023-12-07T01:54:54;39.13;;;19.77;;
56999;SDS011;42891;50.006;21.964;2023-12-07T01:58:54;38.63;;;18.90;;
56999;SDS011;42891;50.006;21.964;2023-12-07T02:02:55;31.30;;;17.67;;
56999;SDS011;42891;50.006;21.964;2023-12-07T02:06:57;32.22;;;16.95;;
56999;SDS011;42891;50.006;21.964;2023-12-07T02:10:59;31.90;;;16.60;;
56999;SDS011;42891;50.006;21.964;2023-12-07T02:15:03;29.73;;;15.45;;
56999;SDS011;42891;50.006;21.964;2023-12-07T02:23:32;28.35;;;16.27;;
56999;SDS011;42891;50.006;21.964;2023-12-07T02:27:37;28.45;;;15.88;;
56999;SDS011;42891;50.006;21.964;2023-12-07T02:35:39;36.88;;;19.20;;
56999;SDS011;42891;50.006;21.964;2023-12-07T02:39:41;39.72;;;21.38;;
56999;SDS011;42891;50.006;21.964;2023-12-07T02:43:42;34.33;;;20.08;;
56999;SDS011;42891;50.006;21.964;2023-12-07T02:47:42;35.08;;;18.80;;
56999;SDS011;42891;50.006;21.964;2023-12-07T02:51:43;36.22;;;18.67;;
56999;SDS011;42891;50.006;21.964;2023-12-07T02:55:43;31.05;;;18.20;;
56999;SDS011;42891;50.006;21.964;2023-12-07T02:59:43;34.67;;;20.80;;
56999;SDS011;42891;50.006;21.964;2023-12-07T03:03:44;33.60;;;19.63;;
56999;SDS011;42891;50.006;21.964;2023-12-07T03:07:44;38.40;;;20.33;;
56999;SDS011;42891;50.006;21.964;2023-12-07T03:11:44;35.97;;;20.17;;
56999;SDS011;42891;50.006;21.964;2023-12-07T03:15:45;30.70;;;18.83;;
56999;SDS011;42891;50.006;21.964;2023-12-07T03:19:45;32.40;;;18.50;;
56999;SDS011;42891;50.006;21.964;2023-12-07T03:23:45;30.23;;;17.08;;
56999;SDS011;42891;50.006;21.964;2023-12-07T03:27:45;31.25;;;17.33;;
56999;SDS011;42891;50.006;21.964;2023-12-07T03:31:46;28.97;;;16.57;;
56999;SDS011;42891;50.006;21.964;2023-12-07T03:35:46;30.63;;;16.45;;
56999;SDS011;42891;50.006;21.964;2023-12-07T03:39:46;29.23;;;16.13;;
56999;SDS011;42891;50.006;21.964;2023-12-07T03:43:47;29.27;;;17.42;;
56999;SDS011;42891;50.006;21.964;2023-12-07T03:47:47;30.50;;;17.63;;
56999;SDS011;42891;50.006;21.964;2023-12-07T03:51:47;29.90;;;17.47;;
56999;SDS011;42891;50.006;21.964;2023-12-07T03:55:48;32.67;;;17.67;;
56999;SDS011;42891;50.006;21.964;2023-12-07T03:59:48;28.92;;;15.75;;
56999;SDS011;42891;50.006;21.964;2023-12-07T04:03:48;27.17;;;17.17;;
56999;SDS011;42891;50.006;21.964;2023-12-07T04:07:48;28.65;;;16.20;;
56999;SDS011;42891;50.006;21.964;2023-12-07T04:11:49;29.90;;;14.85;;
56999;SDS011;42891;50.006;21.964;2023-12-07T04:15:49;23.17;;;13.80;;
56999;SDS011;42891;50.006;21.964;2023-12-07T04:19:50;23.70;;;13.13;;
56999;SDS011;42891;50.006;21.964;2023-12-07T04:23:50;23.17;;;13.57;;
56999;SDS011;42891;50.006;21.964;2023-12-07T04:27:50;24.73;;;13.25;;
56999;SDS011;42891;50.006;21.964;2023-12-07T04:31:50;25.00;;;13.88;;
56999;SDS011;42891;50.006;21.964;2023-12-07T04:35:51;22.95;;;13.35;;
56999;SDS011;42891;50.006;21.964;2023-12-07T04:39:51;24.95;;;12.73;;
56999;SDS011;42891;50.006;21.964;2023-12-07T04:43:51;22.80;;;12.90;;
56999;SDS011;42891;50.006;21.964;2023-12-07T04:47:52;20.48;;;12.40;;
56999;SDS011;42891;50.006;21.964;2023-12-07T04:51:52;19.40;;;11.48;;
56999;SDS011;42891;50.006;21.964;2023-12-07T04:55:52;18.10;;;11.83;;
56999;SDS011;42891;50.006;21.964;2023-12-07T04:59:53;18.27;;;10.88;;
56999;SDS011;42891;50.006;21.964;2023-12-07T05:03:53;19.85;;;12.00;;
56999;SDS011;42891;50.006;21.964;2023-12-07T05:07:53;22.85;;;12.38;;
56999;SDS011;42891;50.006;21.964;2023-12-07T05:11:54;23.15;;;12.63;;
56999;SDS011;42891;50.006;21.964;2023-12-07T05:15:54;26.75;;;14.07;;
56999;SDS011;42891;50.006;21.964;2023-12-07T05:19:54;26.48;;;14.95;;
56999;SDS011;42891;50.006;21.964;2023-12-07T05:23:55;35.13;;;16.58;;
56999;SDS011;42891;50.006;21.964;2023-12-07T05:27:55;30.92;;;17.15;;
56999;SDS011;42891;50.006;21.964;2023-12-07T05:31:55;27.17;;;15.10;;
56999;SDS011;42891;50.006;21.964;2023-12-07T05:35:56;30.02;;;16.25;;
56999;SDS011;42891;50.006;21.964;2023-12-07T05:39:56;34.00;;;16.20;;
56999;SDS011;42891;50.006;21.964;2023-12-07T05:43:56;28.70;;;14.53;;
56999;SDS011;42891;50.006;21.964;2023-12-07T05:47:56;29.15;;;15.00;;
56999;SDS011;42891;50.006;21.964;2023-12-07T05:51:57;33.25;;;16.73;;
56999;SDS011;42891;50.006;21.964;2023-12-07T05:55:57;35.58;;;16.77;;
56999;SDS011;42891;50.006;21.964;2023-12-07T05:59:57;36.05;;;17.08;;
56999;SDS011;42891;50.006;21.964;2023-12-07T06:03:58;33.05;;;16.20;;
56999;SDS011;42891;50.006;21.964;2023-12-07T06:07:59;53.25;;;25.88;;
56999;SDS011;42891;50.006;21.964;2023-12-07T06:11:59;40.05;;;20.35;;
56999;SDS011;42891;50.006;21.964;2023-12-07T06:16:00;47.28;;;21.60;;
56999;SDS011;42891;50.006;21.964;2023-12-07T06:20:01;43.38;;;20.80;;
56999;SDS011;42891;50.006;21.964;2023-12-07T06:24:03;44.65;;;20.90;;
56999;SDS011;42891;50.006;21.964;2023-12-07T06:28:03;48.85;;;23.63;;
56999;SDS011;42891;50.006;21.964;2023-12-07T06:32:04;47.80;;;24.17;;
56999;SDS011;42891;50.006;21.964;2023-12-07T06:36:05;42.92;;;22.23;;
56999;SDS011;42891;50.006;21.964;2023-12-07T06:40:06;48.70;;;23.38;;
56999;SDS011;42891;50.006;21.964;2023-12-07T06:44:09;46.40;;;23.83;;
56999;SDS011;42891;50.006;21.964;2023-12-07T06:48:09;48.22;;;25.60;;
56999;SDS011;42891;50.006;21.964;2023-12-07T06:52:09;45.88;;;22.05;;
56999;SDS011;42891;50.006;21.964;2023-12-07T06:56:11;42.33;;;20.73;;
56999;SDS011;42891;50.006;21.964;2023-12-07T07:00:11;46.40;;;22.67;;
56999;SDS011;42891;50.006;21.964;2023-12-07T07:04:11;41.85;;;21.05;;
56999;SDS011;42891;50.006;21.964;2023-12-07T07:08:12;45.93;;;22.27;;
56999;SDS011;42891;50.006;21.964;2023-12-07T07:12:12;41.58;;;19.83;;
56999;SDS011;42891;50.006;21.964;2023-12-07T07:16:12;41.05;;;21.27;;
56999;SDS011;42891;50.006;21.964;2023-12-07T07:20:12;41.08;;;22.48;;
56999;SDS011;42891;50.006;21.964;2023-12-07T07:24:13;46.20;;;22.80;;
56999;SDS011;42891;50.006;21.964;2023-12-07T07:28:13;49.83;;;27.40;;
56999;SDS011;42891;50.006;21.964;2023-12-07T07:32:13;49.95;;;26.55;;
56999;SDS011;42891;50.006;21.964;2023-12-07T07:36:14;40.65;;;21.60;;
56999;SDS011;42891;50.006;21.964;2023-12-07T07:40:17;44.88;;;22.90;;
56999;SDS011;42891;50.006;21.964;2023-12-07T07:44:17;49.03;;;22.38;;
56999;SDS011;42891;50.006;21.964;2023-12-07T07:48:18;41.15;;;22.45;;
56999;SDS011;42891;50.006;21.964;2023-12-07T07:52:18;50.90;;;27.65;;
56999;SDS011;42891;50.006;21.964;2023-12-07T07:56:19;42.42;;;23.13;;
56999;SDS011;42891;50.006;21.964;2023-12-07T08:00:19;48.20;;;24.70;;
56999;SDS011;42891;50.006;21.964;2023-12-07T08:04:20;46.10;;;25.38;;
56999;SDS011;42891;50.006;21.964;2023-12-07T08:08:20;46.83;;;24.30;;
56999;SDS011;42891;50.006;21.964;2023-12-07T08:12:21;46.67;;;24.35;;
56999;SDS011;42891;50.006;21.964;2023-12-07T08:16:24;45.55;;;22.90;;
56999;SDS011;42891;50.006;21.964;2023-12-07T08:20:24;43.10;;;22.02;;
56999;SDS011;42891;50.006;21.964;2023-12-07T08:24:25;39.30;;;22.00;;
56999;SDS011;42891;50.006;21.964;2023-12-07T08:28:25;57.85;;;26.73;;
56999;SDS011;42891;50.006;21.964;2023-12-07T08:32:25;49.00;;;24.73;;
56999;SDS011;42891;50.006;21.964;2023-12-07T08:36:26;38.42;;;22.10;;
56999;SDS011;42891;50.006;21.964;2023-12-07T08:40:26;43.75;;;23.35;;
56999;SDS011;42891;50.006;21.964;2023-12-07T08:44:27;41.63;;;22.03;;
56999;SDS011;42891;50.006;21.964;2023-12-07T08:48:27;38.95;;;21.15;;
56999;SDS011;42891;50.006;21.964;2023-12-07T08:52:27;49.72;;;23.70;;
56999;SDS011;42891;50.006;21.964;2023-12-07T08:56:27;42.47;;;21.88;;
56999;SDS011;42891;50.006;21.964;2023-12-07T09:00:28;40.60;;;21.80;;
56999;SDS011;42891;50.006;21.964;2023-12-07T09:04:28;44.53;;;23.80;;
56999;SDS011;42891;50.006;21.964;2023-12-07T09:08:28;49.97;;;25.33;;
56999;SDS011;42891;50.006;21.964;2023-12-07T09:12:29;39.03;;;21.63;;
56999;SDS011;42891;50.006;21.964;2023-12-07T09:16:29;54.80;;;26.88;;
56999;SDS011;42891;50.006;21.964;2023-12-07T09:20:29;44.85;;;24.08;;
56999;SDS011;42891;50.006;21.964;2023-12-07T09:24:30;41.33;;;22.17;;
56999;SDS011;42891;50.006;21.964;2023-12-07T09:28:31;44.90;;;22.17;;
56999;SDS011;42891;50.006;21.964;2023-12-07T09:32:33;43.20;;;23.00;;
56999;SDS011;42891;50.006;21.964;2023-12-07T09:36:38;51.95;;;26.15;;
56999;SDS011;42891;50.006;21.964;2023-12-07T09:40:38;57.13;;;27.00;;
56999;SDS011;42891;50.006;21.964;2023-12-07T09:44:38;44.85;;;22.92;;
56999;SDS011;42891;50.006;21.964;2023-12-07T09:48:39;50.17;;;26.60;;
56999;SDS011;42891;50.006;21.964;2023-12-07T09:52:42;52.25;;;29.70;;
56999;SDS011;42891;50.006;21.964;2023-12-07T09:56:43;45.47;;;25.40;;
56999;SDS011;42891;50.006;21.964;2023-12-07T10:00:43;53.67;;;28.70;;
56999;SDS011;42891;50.006;21.964;2023-12-07T10:04:44;55.00;;;30.10;;
56999;SDS011;42891;50.006;21.964;2023-12-07T10:08:44;50.03;;;26.07;;
56999;SDS011;42891;50.006;21.964;2023-12-07T10:12:53;49.00;;;25.20;;
56999;SDS011;42891;50.006;21.964;2023-12-07T10:16:54;51.20;;;26.92;;
56999;SDS011;42891;50.006;21.964;2023-12-07T10:20:56;44.38;;;25.40;;
56999;SDS011;42891;50.006;21.964;2023-12-07T10:24:56;50.97;;;26.35;;
56999;SDS011;42891;50.006;21.964;2023-12-07T10:28:56;50.33;;;26.63;;
56999;SDS011;42891;50.006;21.964;2023-12-07T10:32:58;48.75;;;24.63;;
56999;SDS011;42891;50.006;21.964;2023-12-07T10:36:59;45.65;;;25.48;;
56999;SDS011;42891;50.006;21.964;2023-12-07T10:41:05;53.13;;;24.98;;
56999;SDS011;42891;50.006;21.964;2023-12-07T10:45:07;50.72;;;26.02;;
56999;SDS011;42891;50.006;21.964;2023-12-07T10:49:10;44.97;;;23.77;;
56999;SDS011;42891;50.006;21.964;2023-12-07T10:53:19;45.90;;;25.17;;
56999;SDS011;42891;50.006;21.964;2023-12-07T10:57:26;49.40;;;26.83;;
56999;SDS011;42891;50.006;21.964;2023-12-07T11:01:27;49.65;;;25.00;;
56999;SDS011;42891;50.006;21.964;2023-12-07T11:05:29;53.47;;;29.35;;
56999;SDS011;42891;50.006;21.964;2023-12-07T11:09:32;59.65;;;32.42;;
56999;SDS011;42891;50.006;21.964;2023-12-07T11:13:38;52.03;;;28.30;;
56999;SDS011;42891;50.006;21.964;2023-12-07T11:17:50;48.65;;;25.90;;
56999;SDS011;42891;50.006;21.964;2023-12-07T11:21:53;51.10;;;26.80;;
56999;SDS011;42891;50.006;21.964;2023-12-07T11:25:53;47.08;;;25.83;;
56999;SDS011;42891;50.006;21.964;2023-12-07T11:29:55;47.38;;;25.00;;
56999;SDS011;42891;50.006;21.964;2023-12-07T11:34:05;52.60;;;27.52;;
56999;SDS011;42891;50.006;21.964;2023-12-07T11:38:08;51.85;;;27.08;;
56999;SDS011;42891;50.006;21.964;2023-12-07T11:42:13;58.75;;;30.00;;
56999;SDS011;42891;50.006;21.964;2023-12-07T11:46:16;61.38;;;31.60;;
56999;SDS011;42891;50.006;21.964;2023-12-07T11:50:16;58.80;;;29.73;;
56999;SDS011;42891;50.006;21.964;2023-12-07T11:54:17;53.00;;;29.15;;
56999;SDS011;42891;50.006;21.964;2023-12-07T11:58:17;58.45;;;27.30;;
56999;SDS011;42891;50.006;21.964;2023-12-07T12:02:18;56.35;;;28.20;;
56999;SDS011;42891;50.006;21.964;2023-12-07T12:06:18;48.78;;;26.48;;
56999;SDS011;42891;50.006;21.964;2023-12-07T12:10:19;53.42;;;26.60;;
56999;SDS011;42891;50.006;21.964;2023-12-07T12:14:20;58.47;;;28.52;;
56999;SDS011;42891;50.006;21.964;2023-12-07T12:18:21;52.35;;;28.17;;
56999;SDS011;42891;50.006;21.964;2023-12-07T12:22:21;49.55;;;26.83;;
56999;SDS011;42891;50.006;21.964;2023-12-07T12:26:22;60.22;;;27.60;;
56999;SDS011;42891;50.006;21.964;2023-12-07T12:30:22;52.70;;;25.75;;
56999;SDS011;42891;50.006;21.964;2023-12-07T12:34:23;46.95;;;23.98;;
56999;SDS011;42891;50.006;21.964;2023-12-07T12:38:24;50.67;;;26.85;;
56999;SDS011;42891;50.006;21.964;2023-12-07T12:42:24;49.40;;;26.75;;
56999;SDS011;42891;50.006;21.964;2023-12-07T12:46:24;52.28;;;27.45;;
56999;SDS011;42891;50.006;21.964;2023-12-07T12:50:38;51.85;;;27.85;;
56999;SDS011;42891;50.006;21.964;2023-12-07T12:54:44;56.35;;;28.52;;
56999;SDS011;42891;50.006;21.964;2023-12-07T12:58:44;49.13;;;27.20;;
56999;SDS011;42891;50.006;21.964;2023-12-07T13:02:45;50.17;;;26.23;;
56999;SDS011;42891;50.006;21.964;2023-12-07T13:06:45;57.53;;;29.50;;
56999;SDS011;42891;50.006;21.964;2023-12-07T13:10:45;48.45;;;27.77;;
56999;SDS011;42891;50.006;21.964;2023-12-07T13:14:45;46.13;;;25.60;;
56999;SDS011;42891;50.006;21.964;2023-12-07T13:18:46;52.25;;;26.25;;
56999;SDS011;42891;50.006;21.964;2023-12-07T13:22:46;55.53;;;28.17;;
56999;SDS011;42891;50.006;21.964;2023-12-07T13:26:47;81.30;;;38.53;;
56999;SDS011;42891;50.006;21.964;2023-12-07T13:30:47;61.67;;;31.45;;
56999;SDS011;42891;50.006;21.964;2023-12-07T13:34:47;56.47;;;30.05;;
56999;SDS011;42891;50.006;21.964;2023-12-07T13:38:48;58.60;;;30.35;;
56999;SDS011;42891;50.006;21.964;2023-12-07T13:42:48;59.13;;;31.10;;
56999;SDS011;42891;50.006;21.964;2023-12-07T13:46:48;53.13;;;29.05;;
56999;SDS011;42891;50.006;21.964;2023-12-07T13:50:49;59.17;;;30.20;;
56999;SDS011;42891;50.006;21.964;2023-12-07T13:54:50;63.88;;;34.25;;
56999;SDS011;42891;50.006;21.964;2023-12-07T13:58:50;56.47;;;29.98;;
56999;SDS011;42891;50.006;21.964;2023-12-07T14:02:50;59.47;;;32.45;;
56999;SDS011;42891;50.006;21.964;2023-12-07T14:06:51;62.58;;;32.70;;
56999;SDS011;42891;50.006;21.964;2023-12-07T14:10:51;63.42;;;32.40;;
56999;SDS011;42891;50.006;21.964;2023-12-07T14:14:51;66.50;;;33.40;;
56999;SDS011;42891;50.006;21.964;2023-12-07T14:18:52;64.43;;;32.55;;
56999;SDS011;42891;50.006;21.964;2023-12-07T14:22:52;59.17;;;30.98;;
56999;SDS011;42891;50.006;21.964;2023-12-07T14:26:53;64.33;;;32.93;;
56999;SDS011;42891;50.006;21.964;2023-12-07T14:30:54;67.32;;;34.05;;
56999;SDS011;42891;50.006;21.964;2023-12-07T14:34:56;64.10;;;33.80;;
56999;SDS011;42891;50.006;21.964;2023-12-07T14:38:56;66.33;;;32.70;;
56999;SDS011;42891;50.006;21.964;2023-12-07T14:42:56;70.10;;;34.85;;
56999;SDS011;42891;50.006;21.964;2023-12-07T14:46:57;61.45;;;33.15;;
56999;SDS011;42891;50.006;21.964;2023-12-07T14:50:57;63.55;;;32.88;;
56999;SDS011;42891;50.006;21.964;2023-12-07T14:54:57;63.50;;;30.87;;
56999;SDS011;42891;50.006;21.964;2023-12-07T14:58:58;72.97;;;36.70;;
56999;SDS011;42891;50.006;21.964;2023-12-07T15:02:58;68.00;;;34.03;;
56999;SDS011;42891;50.006;21.964;2023-12-07T15:06:59;78.03;;;36.27;;
56999;SDS011;42891;50.006;21.964;2023-12-07T15:10:59;75.55;;;35.65;;
56999;SDS011;42891;50.006;21.964;2023-12-07T15:14:59;69.28;;;36.72;;
56999;SDS011;42891;50.006;21.964;2023-12-07T15:19:00;91.07;;;42.40;;
56999;SDS011;42891;50.006;21.964;2023-12-07T15:23:00;76.13;;;38.92;;
56999;SDS011;42891;50.006;21.964;2023-12-07T15:27:00;75.35;;;38.33;;
56999;SDS011;42891;50.006;21.964;2023-12-07T15:31:00;67.32;;;35.15;;
56999;SDS011;42891;50.006;21.964;2023-12-07T15:35:01;73.75;;;36.22;;
56999;SDS011;42891;50.006;21.964;2023-12-07T15:39:01;73.88;;;36.50;;
56999;SDS011;42891;50.006;21.964;2023-12-07T15:43:02;72.20;;;35.92;;
56999;SDS011;42891;50.006;21.964;2023-12-07T15:47:02;86.43;;;42.45;;
56999;SDS011;42891;50.006;21.964;2023-12-07T15:51:03;83.82;;;41.60;;
56999;SDS011;42891;50.006;21.964;2023-12-07T15:55:04;92.72;;;42.65;;
56999;SDS011;42891;50.006;21.964;2023-12-07T15:59:06;91.22;;;40.90;;
56999;SDS011;42891;50.006;21.964;2023-12-07T16:03:06;79.93;;;39.60;;
56999;SDS011;42891;50.006;21.964;2023-12-07T16:07:07;75.68;;;35.85;;
56999;SDS011;42891;50.006;21.964;2023-12-07T16:11:07;82.63;;;39.75;;
56999;SDS011;42891;50.006;21.964;2023-12-07T16:15:08;75.80;;;36.92;;
56999;SDS011;42891;50.006;21.964;2023-12-07T16:19:08;80.63;;;42.80;;
56999;SDS011;42891;50.006;21.964;2023-12-07T16:23:10;87.18;;;42.10;;
56999;SDS011;42891;50.006;21.964;2023-12-07T16:27:10;83.75;;;40.75;;
56999;SDS011;42891;50.006;21.964;2023-12-07T16:31:10;80.68;;;38.90;;
56999;SDS011;42891;50.006;21.964;2023-12-07T16:35:10;79.00;;;39.17;;
56999;SDS011;42891;50.006;21.964;2023-12-07T16:39:12;78.97;;;37.78;;
56999;SDS011;42891;50.006;21.964;2023-12-07T16:43:13;82.38;;;39.67;;
56999;SDS011;42891;50.006;21.964;2023-12-07T16:47:14;78.85;;;36.28;;
56999;SDS011;42891;50.006;21.964;2023-12-07T16:51:14;82.47;;;40.47;;
56999;SDS011;42891;50.006;21.964;2023-12-07T16:55:14;71.45;;;38.47;;
56999;SDS011;42891;50.006;21.964;2023-12-07T16:59:14;73.47;;;34.50;;
56999;SDS011;42891;50.006;21.964;2023-12-07T17:03:16;81.32;;;38.08;;
56999;SDS011;42891;50.006;21.964;2023-12-07T17:07:17;81.07;;;39.28;;
56999;SDS011;42891;50.006;21.964;2023-12-07T17:11:17;88.53;;;42.40;;
56999;SDS011;42891;50.006;21.964;2023-12-07T17:15:18;90.15;;;43.40;;
56999;SDS011;42891;50.006;21.964;2023-12-07T17:19:18;87.03;;;47.40;;
56999;SDS011;42891;50.006;21.964;2023-12-07T17:23:19;91.68;;;44.50;;
56999;SDS011;42891;50.006;21.964;2023-12-07T17:27:19;120.20;;;58.55;;
56999;SDS011;42891;50.006;21.964;2023-12-07T17:31:19;110.15;;;51.78;;
56999;SDS011;42891;50.006;21.964;2023-12-07T17:35:19;110.85;;;48.88;;
56999;SDS011;42891;50.006;21.964;2023-12-07T17:39:20;106.63;;;48.15;;
56999;SDS011;42891;50.006;21.964;2023-12-07T17:43:20;98.07;;;46.60;;
56999;SDS011;42891;50.006;21.964;2023-12-07T17:47:20;97.15;;;46.30;;
56999;SDS011;42891;50.006;21.964;2023-12-07T17:51:23;100.28;;;47.00;;
56999;SDS011;42891;50.006;21.964;2023-12-07T17:55:23;91.20;;;45.05;;
56999;SDS011;42891;50.006;21.964;2023-12-07T17:59:23;101.32;;;48.33;;
56999;SDS011;42891;50.006;21.964;2023-12-07T18:03:23;95.80;;;43.87;;
56999;SDS011;42891;50.006;21.964;2023-12-07T18:07:24;127.97;;;53.00;;
56999;SDS011;42891;50.006;21.964;2023-12-07T18:11:26;85.47;;;42.17;;
56999;SDS011;42891;50.006;21.964;2023-12-07T18:15:27;90.88;;;44.92;;
56999;SDS011;42891;50.006;21.964;2023-12-07T18:19:28;84.38;;;43.15;;
56999;SDS011;42891;50.006;21.964;2023-12-07T18:23:28;82.35;;;42.50;;
56999;SDS011;42891;50.006;21.964;2023-12-07T18:27:28;82.22;;;39.95;;
56999;SDS011;42891;50.006;21.964;2023-12-07T18:31:29;89.85;;;43.45;;
56999;SDS011;42891;50.006;21.964;2023-12-07T18:35:30;92.22;;;44.25;;
56999;SDS011;42891;50.006;21.964;2023-12-07T18:39:30;94.85;;;46.72;;
56999;SDS011;42891;50.006;21.964;2023-12-07T18:43:30;96.60;;;44.17;;
56999;SDS011;42891;50.006;21.964;2023-12-07T18:47:31;83.85;;;41.28;;
56999;SDS011;42891;50.006;21.964;2023-12-07T18:51:31;89.28;;;40.63;;
56999;SDS011;42891;50.006;21.964;2023-12-07T18:55:31;82.95;;;45.22;;
56999;SDS011;42891;50.006;21.964;2023-12-07T18:59:32;89.80;;;43.53;;
56999;SDS011;42891;50.006;21.964;2023-12-07T19:03:32;92.80;;;43.67;;
56999;SDS011;42891;50.006;21.964;2023-12-07T19:07:33;89.53;;;42.50;;
56999;SDS011;42891;50.006;21.964;2023-12-07T19:11:33;88.40;;;42.80;;
56999;SDS011;42891;50.006;21.964;2023-12-07T19:15:33;90.95;;;43.67;;
56999;SDS011;42891;50.006;21.964;2023-12-07T19:19:34;86.60;;;43.00;;
56999;SDS011;42891;50.006;21.964;2023-12-07T19:23:34;88.20;;;43.60;;
56999;SDS011;42891;50.006;21.964;2023-12-07T19:27:34;91.05;;;44.67;;
56999;SDS011;42891;50.006;21.964;2023-12-07T19:31:37;94.15;;;44.30;;
56999;SDS011;42891;50.006;21.964;2023-12-07T19:35:37;84.90;;;41.08;;
56999;SDS011;42891;50.006;21.964;2023-12-07T19:39:38;90.00;;;43.42;;
56999;SDS011;42891;50.006;21.964;2023-12-07T19:43:38;97.38;;;46.25;;
56999;SDS011;42891;50.006;21.964;2023-12-07T19:47:38;78.13;;;41.33;;
56999;SDS011;42891;50.006;21.964;2023-12-07T19:51:39;88.82;;;42.72;;
56999;SDS011;42891;50.006;21.964;2023-12-07T19:55:39;85.53;;;42.97;;
56999;SDS011;42891;50.006;21.964;2023-12-07T19:59:39;94.55;;;44.40;;
56999;SDS011;42891;50.006;21.964;2023-12-07T20:03:40;93.93;;;44.70;;
56999;SDS011;42891;50.006;21.964;2023-12-07T20:07:40;90.30;;;43.25;;
56999;SDS011;42891;50.006;21.964;2023-12-07T20:11:43;89.70;;;42.78;;
56999;SDS011;42891;50.006;21.964;2023-12-07T20:15:44;92.70;;;43.20;;
56999;SDS011;42891;50.006;21.964;2023-12-07T20:19:45;85.70;;;41.92;;
56999;SDS011;42891;50.006;21.964;2023-12-07T20:23:45;83.60;;;42.33;;
56999;SDS011;42891;50.006;21.964;2023-12-07T20:27:45;85.97;;;42.97;;
56999;SDS011;42891;50.006;21.964;2023-12-07T20:31:46;93.80;;;44.92;;
56999;SDS011;42891;50.006;21.964;2023-12-07T20:35:46;95.50;;;44.22;;
56999;SDS011;42891;50.006;21.964;2023-12-07T20:39:46;94.07;;;44.80;;
56999;SDS011;42891;50.006;21.964;2023-12-07T20:43:47;102.15;;;46.70;;
56999;SDS011;42891;50.006;21.964;2023-12-07T20:47:47;100.70;;;45.22;;
56999;SDS011;42891;50.006;21.964;2023-12-07T20:51:47;95.10;;;43.53;;
56999;SDS011;42891;50.006;21.964;2023-12-07T20:55:47;92.55;;;44.17;;
56999;SDS011;42891;50.006;21.964;2023-12-07T20:59:48;103.73;;;48.57;;
56999;SDS011;42891;50.006;21.964;2023-12-07T21:03:48;76.63;;;38.10;;
56999;SDS011;42891;50.006;21.964;2023-12-07T21:07:49;84.72;;;39.97;;
56999;SDS011;42891;50.006;21.964;2023-12-07T21:11:49;80.60;;;38.78;;
56999;SDS011;42891;50.006;21.964;2023-12-07T21:15:49;87.72;;;41.58;;
56999;SDS011;42891;50.006;21.964;2023-12-07T21:19:50;79.03;;;39.50;;
56999;SDS011;42891;50.006;21.964;2023-12-07T21:23:51;80.30;;;39.67;;
56999;SDS011;42891;50.006;21.964;2023-12-07T21:27:51;95.32;;;42.28;;
56999;SDS011;42891;50.006;21.964;2023-12-07T21:31:51;87.78;;;40.35;;
56999;SDS011;42891;50.006;21.964;2023-12-07T21:35:51;83.30;;;39.75;;
56999;SDS011;42891;50.006;21.964;2023-12-07T21:39:52;80.90;;;39.42;;
56999;SDS011;42891;50.006;21.964;2023-12-07T21:43:53;80.43;;;39.38;;
56999;SDS011;42891;50.006;21.964;2023-12-07T21:47:53;89.70;;;40.37;;
56999;SDS011;42891;50.006;21.964;2023-12-07T21:51:54;86.88;;;39.97;;
56999;SDS011;42891;50.006;21.964;2023-12-07T21:55:54;89.70;;;40.27;;
56999;SDS011;42891;50.006;21.964;2023-12-07T21:59:54;77.00;;;37.75;;
56999;SDS011;42891;50.006;21.964;2023-12-07T22:03:54;86.38;;;40.75;;
56999;SDS011;42891;50.006;21.964;2023-12-07T22:07:55;83.10;;;37.77;;
56999;SDS011;42891;50.006;21.964;2023-12-07T22:11:55;75.75;;;36.67;;
56999;SDS011;42891;50.006;21.964;2023-12-07T22:15:55;85.25;;;41.63;;
56999;SDS011;42891;50.006;21.964;2023-12-07T22:19:57;84.65;;;37.63;;
56999;SDS011;42891;50.006;21.964;2023-12-07T22:23:57;84.03;;;38.92;;
56999;SDS011;42891;50.006;21.964;2023-12-07T22:27:57;74.13;;;35.17;;
56999;SDS011;42891;50.006;21.964;2023-12-07T22:31:58;90.55;;;42.95;;
56999;SDS011;42891;50.006;21.964;2023-12-07T22:35:59;104.63;;;45.58;;
56999;SDS011;42891;50.006;21.964;2023-12-07T22:39:59;78.38;;;36.97;;
56999;SDS011;42891;50.006;21.964;2023-12-07T22:43:59;80.73;;;37.47;;
56999;SDS011;42891;50.006;21.964;2023-12-07T22:48:00;81.32;;;37.03;;
56999;SDS011;42891;50.006;21.964;2023-12-07T22:52:00;108.88;;;50.20;;
56999;SDS011;42891;50.006;21.964;2023-12-07T22:56:00;88.70;;;40.20;;
56999;SDS011;42891;50.006;21.964;2023-12-07T23:00:00;85.70;;;37.92;;
56999;SDS011;42891;50.006;21.964;2023-12-07T23:04:01;80.95;;;38.28;;
56999;SDS011;42891;50.006;21.964;2023-12-07T23:08:02;90.55;;;42.75;;
56999;SDS011;42891;50.006;21.964;2023-12-07T23:12:02;102.72;;;44.85;;
56999;SDS011;42891;50.006;21.964;2023-12-07T23:16:03;86.35;;;39.03;;
56999;SDS011;42891;50.006;21.964;2023-12-07T23:20:04;87.88;;;38.47;;